Time;durP1;ratioP1;P1;durP2;ratioP2;P2;SDS_P1;SDS_P2;PMS_P1;PMS_P2;Temp;Humidity;BMP_temperature;BMP_pressure;BME280_temperature;BME280_humidity;BME280_pressure;Samples;Min_cycle;Max_cycle;Signal;HPM_P1;HPM_P2
2021/04/15 00:02:13;;;;;;;3.45;2.83;;;;;;;4.75;65.24;99334.87;258308;1115;113958;-72
2021/04/15 00:07:16;;;;;;;3.03;2.60;;;;;;;4.71;64.71;99331.47;258251;1116;114193;-72
2021/04/15 00:12:19;;;;;;;5.40;2.98;;;;;;;4.63;64.59;99327.39;258363;1116;114273;-72
2021/04/15 00:17:22;;;;;;;4.13;2.85;;;;;;;4.61;65.24;99331.84;258287;1115;114181;-72
2021/04/15 00:22:26;;;;;;;3.48;2.78;;;;;;;4.60;65.00;99322.22;258371;1115;114147;-72
2021/04/15 00:27:29;;;;;;;2.88;2.20;;;;;;;4.51;64.71;99326.86;258419;1116;114377;-72
2021/04/15 00:32:32;;;;;;;2.15;1.73;;;;;;;4.49;65.15;99318.16;258306;1114;114205;-71
2021/04/15 00:37:35;;;;;;;3.20;2.10;;;;;;;4.51;65.02;99311.05;258378;1114;115371;-71
2021/04/15 00:42:38;;;;;;;2.30;2.00;;;;;;;4.53;64.92;99307.52;258215;1116;114482;-71
2021/04/15 00:47:43;;;;;;;2.65;2.38;;;;;;;4.58;65.49;99306.44;258407;1114;114274;-71
2021/04/15 00:52:48;;;;;;;;;;;;;;;4.63;65.18;99301.03;258379;1116;113901;-71
2021/04/15 00:57:52;;;;;;;2.65;2.03;;;;;;;4.60;64.93;99301.13;258502;1115;100867;-71
2021/04/15 01:02:56;;;;;;;2.45;1.85;;;;;;;4.53;64.99;99303.11;258487;1116;114005;-78
2021/04/15 01:07:59;;;;;;;3.18;2.53;;;;;;;4.48;64.84;99300.64;258375;1114;114198;-78
2021/04/15 01:13:23;;;;;;;3.35;2.20;;;;;;;4.46;65.18;99299.81;258393;1115;114128;-78
2021/04/15 01:18:57;;;;;;;3.25;2.20;;;;;;;4.49;64.93;99298.86;258391;1114;113985;-78
2021/04/15 01:24:13;;;;;;;4.93;3.20;;;;;;;4.51;65.55;99302.28;258387;1114;115016;-79
2021/04/15 01:29:29;;;;;;;4.73;3.23;;;;;;;4.50;65.30;99301.43;258420;1114;114170;-81
2021/04/15 01:34:55;;;;;;;5.00;3.30;;;;;;;4.48;65.23;99297.11;258347;1116;113971;-79
2021/04/15 01:40:08;;;;;;;5.05;3.40;;;;;;;4.44;65.29;99293.72;258375;1115;114377;-79
2021/04/15 01:45:12;;;;;;;7.10;3.85;;;;;;;4.37;65.94;99289.56;258312;1116;113898;-79
2021/04/15 01:50:25;;;;;;;5.90;4.30;;;;;;;4.39;65.49;99279.00;258305;1116;114365;-80
2021/04/15 01:55:34;;;;;;;7.08;4.40;;;;;;;4.36;65.57;99277.31;258348;1115;114515;-79
2021/04/15 02:01:20;;;;;;;5.55;4.33;;;;;;;4.36;65.63;99273.83;258339;1089;103480;-73
2021/04/15 02:06:30;;;;;;;6.43;4.10;;;;;;;4.36;65.40;99277.31;263459;1088;113959;-81
2021/04/15 02:11:44;;;;;;;6.20;4.38;;;;;;;4.39;66.05;99269.31;263522;1099;114182;-80
2021/04/15 02:16:50;;;;;;;5.85;4.53;;;;;;;4.40;65.77;99264.90;263460;1104;114350;-80
2021/04/15 02:22:03;;;;;;;6.13;4.28;;;;;;;4.39;65.88;99268.45;263496;1099;113976;-80
2021/04/15 02:27:20;;;;;;;6.20;4.53;;;;;;;4.37;66.02;99265.86;263445;1104;114118;-80
2021/04/15 02:32:36;;;;;;;6.80;4.38;;;;;;;4.35;65.17;99261.54;263572;1099;114711;-80
2021/04/15 02:37:46;;;;;;;5.70;4.65;;;;;;;4.32;65.93;99254.63;263167;1101;114040;-80
2021/04/15 02:42:50;;;;;;;6.00;4.70;;;;;;;4.32;65.60;99259.89;263304;1100;114867;-78
2021/04/15 02:47:59;;;;;;;5.33;4.50;;;;;;;4.27;65.58;99256.53;263536;1102;113854;-77
2021/04/15 02:53:10;;;;;;;5.70;3.78;;;;;;;4.31;66.17;99257.30;263567;1099;113926;-78
2021/04/15 02:58:25;;;;;;;6.03;4.28;;;;;;;4.35;65.63;99249.26;263360;1104;114296;-79
2021/04/15 03:03:34;;;;;;;5.65;4.40;;;;;;;4.34;65.90;99252.78;263497;1104;114407;-78
2021/04/15 03:08:40;;;;;;;5.75;3.83;;;;;;;4.31;66.32;99252.02;263392;1104;114280;-79
2021/04/15 03:13:49;;;;;;;;;;;;;;;4.28;66.14;99255.64;263354;1100;114447;-78
2021/04/15 03:19:10;;;;;;;4.35;3.68;;;;;;;4.23;66.02;99247.88;263407;1104;101055;-78
2021/04/15 03:24:33;;;;;;;5.68;4.40;;;;;;;4.22;65.87;99255.84;263586;1099;113896;-78
2021/04/15 03:29:52;;;;;;;4.38;3.98;;;;;;;4.14;66.08;99253.43;262301;1102;114382;-78
2021/04/15 03:35:27;;;;;;;4.90;3.87;;;;;;;4.09;66.12;99251.88;260086;1104;117668;-79
2021/04/15 03:40:34;;;;;;;5.23;3.70;;;;;;;4.07;66.18;99253.69;262719;1099;114221;-80
2021/04/15 03:45:48;;;;;;;5.25;3.70;;;;;;;4.06;66.32;99251.97;263476;1104;114932;-79
2021/04/15 03:50:55;;;;;;;6.05;3.98;;;;;;;4.08;66.28;99247.53;263495;1099;114290;-79
2021/04/15 03:56:03;;;;;;;5.00;3.85;;;;;;;4.05;66.47;99252.89;263141;1104;113888;-81
2021/04/15 04:01:38;;;;;;;5.15;3.73;;;;;;;4.03;66.79;99245.88;263462;1099;114466;-80
2021/04/15 04:06:43;;;;;;;5.43;4.13;;;;;;;4.03;66.41;99245.88;263382;1104;113962;-79
2021/04/15 04:11:48;;;;;;;4.95;3.43;;;;;;;3.97;66.50;99253.11;263300;1099;115253;-80
2021/04/15 04:17:02;;;;;;;;;;;;;;;3.93;66.26;99254.13;263512;1104;114260;-81
2021/04/15 04:22:31;;;;;;;5.85;4.00;;;;;;;3.93;66.53;99246.23;263240;1098;101350;-80
2021/04/15 04:27:40;;;;;;;4.63;3.50;;;;;;;3.99;66.38;99257.43;263513;1104;114170;-80
2021/04/15 04:32:45;;;;;;;5.40;3.55;;;;;;;4.02;66.59;99259.97;260320;1099;114227;-78
2021/04/15 04:37:53;;;;;;;5.88;4.15;;;;;;;3.96;66.87;99260.16;263388;1104;113953;-80
2021/04/15 04:43:19;;;;;;;5.75;4.00;;;;;;;3.95;66.82;99260.22;262493;1099;114259;-77
2021/04/15 04:48:30;;;;;;;5.23;4.10;;;;;;;3.96;66.71;99261.94;263267;1104;114094;-80
2021/04/15 04:53:36;;;;;;;5.97;4.40;;;;;;;3.91;66.98;99262.09;263073;1099;113943;-86
2021/04/15 04:58:40;;;;;;;6.05;4.05;;;;;;;3.90;66.74;99257.71;263495;1104;114256;-83
2021/04/15 05:03:42;;;;;;;6.98;4.50;;;;;;;3.89;66.77;99263.04;263496;1099;114204;-83
2021/04/15 05:08:52;;;;;;;6.20;4.08;;;;;;;3.97;66.99;99258.38;263161;1104;114540;-84
2021/04/15 05:13:54;;;;;;;6.68;4.50;;;;;;;4.03;67.03;99255.56;263175;1099;114120;-83
2021/04/15 05:18:57;;;;;;;5.98;4.35;;;;;;;4.02;66.79;99257.34;261090;1100;113891;-82
2021/04/15 05:24:26;;;;;;;8.13;4.35;;;;;;;3.96;66.93;99264.56;263437;1099;114538;-81
2021/04/15 05:29:33;;;;;;;5.18;4.15;;;;;;;3.93;66.96;99257.62;262664;1105;114237;-82
2021/04/15 05:34:43;;;;;;;7.90;4.30;;;;;;;3.93;67.43;99257.62;262836;1100;114481;-80
2021/04/15 05:39:47;;;;;;;7.20;5.28;;;;;;;3.95;67.37;99255.81;263552;1104;113896;-81
2021/04/15 05:44:56;;;;;;;5.40;3.93;;;;;;;4.00;66.83;99256.52;263528;1099;114065;-82
2021/04/15 05:50:06;;;;;;;6.55;4.38;;;;;;;4.08;67.25;99263.33;263109;1104;114841;-81
2021/04/15 05:55:15;;;;;;;5.95;4.20;;;;;;;4.12;67.34;99251.78;262910;1098;114299;-82
2021/04/15 06:00:28;;;;;;;6.05;4.40;;;;;;;4.16;66.93;99256.03;263499;1104;114163;-82
2021/04/15 06:05:37;;;;;;;7.18;4.48;;;;;;;4.15;66.83;99247.27;262333;1100;114019;-83
2021/04/15 06:10:41;;;;;;;5.88;4.53;;;;;;;4.10;67.44;99253.59;263113;1104;114562;-83
2021/04/15 06:15:52;;;;;;;6.98;5.20;;;;;;;4.13;67.28;99250.86;263638;1099;113422;-83
2021/04/15 06:21:03;;;;;;;5.83;4.53;;;;;;;4.22;67.58;99255.84;261563;1100;114485;-82
2021/04/15 06:26:13;;;;;;;8.63;4.60;;;;;;;4.18;67.36;99259.48;263208;1099;114045;-82
2021/04/15 06:31:27;;;;;;;8.03;4.38;;;;;;;4.19;67.46;99253.30;263464;1104;114322;-83
2021/04/15 06:36:44;;;;;;;5.73;4.38;;;;;;;4.27;67.24;99246.85;263422;1100;114178;-83
2021/04/15 06:42:02;;;;;;;7.23;4.80;;;;;;;4.33;67.33;99250.21;263428;1104;114035;-83
2021/04/15 06:47:11;;;;;;;8.95;4.55;;;;;;;4.43;67.50;99243.72;263522;1098;114125;-82
2021/04/15 06:52:26;;;;;;;6.28;4.43;;;;;;;4.43;66.74;99243.72;263508;1104;114010;-83
2021/04/15 06:57:47;;;;;;;6.88;4.43;;;;;;;4.41;67.43;99246.39;263374;1100;115023;-83
2021/04/15 07:03:05;;;;;;;6.78;4.78;;;;;;;4.40;67.21;99242.04;263172;1104;114078;-83
2021/04/15 07:08:29;;;;;;;6.88;4.93;;;;;;;4.38;67.36;99243.89;263530;1099;114052;-83
2021/04/15 07:13:50;;;;;;;7.45;4.25;;;;;;;4.46;67.29;99239.20;263559;1104;114665;-82
2021/04/15 07:19:21;;;;;;;6.80;4.65;;;;;;;4.55;67.45;99243.28;263478;1098;114206;-82
2021/04/15 07:24:29;;;;;;;6.60;4.30;;;;;;;4.58;67.02;99252.87;263158;1099;114900;-75
2021/04/15 07:30:22;;;;;;;5.33;4.18;;;;;;;4.61;67.28;99244.86;263467;1102;116622;-75
2021/04/15 07:36:09;;;;;;;7.58;4.58;;;;;;;4.63;67.06;99245.68;263377;1099;114573;-76
2021/04/15 07:41:41;;;;;;;5.95;4.38;;;;;;;4.65;67.38;99249.11;263264;1104;115180;-82
2021/04/15 07:47:15;;;;;;;8.95;4.98;;;;;;;4.63;66.89;99250.95;263126;1099;114233;-79
2021/04/15 07:52:48;;;;;;;8.13;4.88;;;;;;;4.61;67.40;99250.98;263452;1102;114331;-77
2021/04/15 07:58:22;;;;;;;5.80;4.00;;;;;;;4.70;67.27;99252.45;263460;1100;114652;-79
2021/04/15 08:03:50;;;;;;;6.83;4.50;;;;;;;4.81;67.39;99255.57;263456;1104;114475;-77
2021/04/15 08:09:11;;;;;;;7.33;4.50;;;;;;;4.92;67.31;99263.09;262928;1100;114747;-77
2021/04/15 08:14:14;;;;;;;4.43;3.48;;;;;;;4.97;66.98;99262.03;263367;1104;114574;-78
2021/04/15 08:19:41;;;;;;;6.13;3.90;;;;;;;5.05;67.43;99267.02;263445;1099;114336;-79
2021/04/15 08:24:50;;;;;;;5.40;3.53;;;;;;;5.03;67.17;99253.05;263203;1104;114360;-76
2021/04/15 08:30:05;;;;;;;5.83;4.08;;;;;;;5.11;66.97;99263.31;263387;1099;114206;-75
2021/04/15 08:35:38;;;;;;;4.88;3.33;;;;;;;5.07;66.38;99259.08;263246;1100;114376;-75
2021/04/15 08:41:01;;;;;;;4.43;2.90;;;;;;;5.05;66.88;99259.11;261807;1100;114421;-76
2021/04/15 08:46:25;;;;;;;5.63;3.60;;;;;;;5.15;67.07;99259.64;263312;1104;114487;-74
2021/04/15 08:51:54;;;;;;;3.63;2.98;;;;;;;5.18;66.65;99265.66;262975;1101;117112;-74
2021/04/15 08:57:20;;;;;;;5.70;3.50;;;;;;;5.21;66.48;99262.06;263224;1098;114308;-74
2021/04/15 09:02:34;;;;;;;;;;;;;;;5.26;66.67;99253.97;263470;1104;114809;-75
2021/04/15 09:07:56;;;;;;;3.85;3.03;;;;;;;5.20;66.73;99249.80;263359;1099;101300;-75
2021/04/15 09:13:08;;;;;;;4.45;3.15;;;;;;;5.34;67.44;99255.42;263529;1104;114187;-74
2021/04/15 09:18:28;;;;;;;5.98;3.15;;;;;;;5.33;66.87;99256.34;263462;1099;114393;-75
2021/04/15 09:23:48;;;;;;;5.05;3.08;;;;;;;5.39;66.55;99252.59;263338;1104;114601;-76
2021/04/15 09:29:13;;;;;;;5.50;3.28;;;;;;;5.38;66.11;99248.25;263462;1099;113874;-79
2021/04/15 09:34:51;;;;;;;4.53;3.10;;;;;;;5.30;66.34;99256.45;263534;1104;114902;-78
2021/04/15 09:40:19;;;;;;;4.55;3.05;;;;;;;5.29;66.60;99251.22;263529;1099;113860;-79
2021/04/15 09:46:26;;;;;;;6.40;3.30;;;;;;;5.31;66.52;99254.67;261342;1104;113984;-82
2021/04/15 09:51:54;;;;;;;5.75;3.08;;;;;;;5.23;65.99;99247.05;259135;1099;113710;-80
2021/04/15 09:57:34;;;;;;;6.55;3.40;;;;;;;5.27;66.24;99243.38;263061;1104;113827;-79
2021/04/15 10:02:59;;;;;;;7.05;3.83;;;;;;;5.25;66.58;99244.34;263520;1100;114384;-87
2021/04/15 10:08:18;;;;;;;9.20;4.23;;;;;;;5.34;66.14;99244.01;263530;1104;113715;-88
2021/04/15 10:14:09;;;;;;;6.55;3.63;;;;;;;5.31;66.42;99247.61;261260;1099;116698;-87
2021/04/15 10:19:31;;;;;;;5.85;3.45;;;;;;;5.41;65.86;99242.86;261135;1097;114105;-87
2021/04/15 10:24:44;;;;;;;6.10;3.55;;;;;;;5.37;65.77;99244.75;263568;1104;113937;-87
2021/04/15 10:30:34;;;;;;;6.83;4.15;;;;;;;5.23;65.63;99244.41;262000;1098;114083;-88
2021/04/15 10:35:46;;;;;;;6.90;3.87;;;;;;;5.25;65.48;99249.62;258149;1104;114676;-86
2021/04/15 10:40:54;;;;;;;6.70;3.90;;;;;;;5.21;66.11;99251.52;261238;1104;114614;-81
2021/04/15 10:46:09;;;;;;;8.40;3.93;;;;;;;5.20;65.64;99253.30;262458;1099;114098;-86
2021/04/15 10:51:29;;;;;;;8.98;4.50;;;;;;;5.23;65.79;99244.41;262372;1104;114072;-87
2021/04/15 10:56:44;;;;;;;7.13;4.63;;;;;;;5.22;65.61;99240.88;262357;1104;114135;-88
2021/04/15 11:01:48;;;;;;;9.63;7.00;;;;;;;5.30;66.49;99240.63;263358;1098;114564;-81
2021/04/15 11:06:57;;;;;;;9.30;6.68;;;;;;;5.64;66.32;99236.70;260309;1104;114340;-86
2021/04/15 11:12:15;;;;;;;11.10;7.18;;;;;;;5.61;65.83;99239.46;263453;1098;114200;-85
2021/04/15 11:17:29;;;;;;;8.33;6.00;;;;;;;5.60;65.90;99256.20;258624;1104;114438;-91
2021/04/15 11:22:34;;;;;;;8.93;6.58;;;;;;;5.54;65.92;99251.17;262940;1098;114041;-87
2021/04/15 11:27:37;;;;;;;;;;;;;;;5.45;65.96;99247.95;262160;1104;114736;-92
2021/04/15 11:32:43;;;;;;;6.83;4.45;;;;;;;5.37;65.67;99252.67;263084;1098;101051;-88
2021/04/15 11:38:04;;;;;;;8.00;5.53;;;;;;;5.29;65.51;99244.16;260844;1099;114570;-89
2021/04/15 11:43:27;;;;;;;9.17;6.63;;;;;;;5.26;66.43;99246.91;257536;1098;115174;-80
2021/04/15 11:48:31;;;;;;;9.48;6.30;;;;;;;5.32;66.74;99248.47;261398;1104;114195;-82
2021/04/15 11:53:51;;;;;;;7.00;5.05;;;;;;;5.30;66.61;99247.66;260731;1099;114000;-80
2021/04/15 11:58:55;;;;;;;9.65;6.55;;;;;;;5.16;65.97;99243.77;261764;1104;114521;-81
2021/04/15 12:04:05;;;;;;;9.03;7.05;;;;;;;5.19;66.33;99248.91;262923;1099;114496;-81
2021/04/15 12:09:13;;;;;;;9.65;6.13;;;;;;;5.27;66.49;99243.38;263417;1101;114899;-82
2021/04/15 12:14:16;;;;;;;7.45;6.50;;;;;;;5.37;66.83;99257.09;263475;1099;114379;-82
2021/04/15 12:19:30;;;;;;;9.28;6.93;;;;;;;5.31;66.45;99239.70;263459;1104;114706;-89
2021/04/15 12:24:53;;;;;;;11.95;6.88;;;;;;;5.37;66.83;99239.47;263432;1099;114418;-89
2021/04/15 12:30:05;;;;;;;9.03;6.77;;;;;;;5.46;66.12;99232.97;263159;1104;115105;-88
2021/04/15 12:35:42;;;;;;;8.78;6.20;;;;;;;5.53;67.05;99238.88;263525;1099;114260;-88
2021/04/15 12:40:48;;;;;;;8.25;6.28;;;;;;;5.43;66.28;99246.28;263488;1104;114528;-81
2021/04/15 12:46:22;;;;;;;9.53;6.83;;;;;;;5.38;66.44;99237.69;261728;1100;114363;-82
2021/04/15 12:51:29;;;;;;;8.17;6.17;;;;;;;5.41;66.72;99245.50;258814;1104;114317;-80
2021/04/15 12:56:39;;;;;;;7.73;5.78;;;;;;;5.50;66.79;99244.27;260346;1100;114538;-81
2021/04/15 13:01:43;;;;;;;8.60;6.60;;;;;;;5.53;66.93;99245.01;263170;1104;114451;-80
2021/04/15 13:07:01;;;;;;;9.90;6.03;;;;;;;5.60;66.59;99235.08;263013;1099;114527;-81
2021/04/15 13:12:34;;;;;;;8.70;6.33;;;;;;;5.64;66.17;99232.28;261769;1099;114290;-82
2021/04/15 13:17:39;;;;;;;8.90;6.03;;;;;;;5.67;65.87;99240.09;259892;1100;116803;-86
2021/04/15 13:22:45;;;;;;;9.40;6.53;;;;;;;5.62;65.57;99230.61;261263;1099;114489;-82
2021/04/15 13:27:53;;;;;;;10.00;6.48;;;;;;;5.52;66.32;99227.46;263524;1104;114360;-82
2021/04/15 13:33:08;;;;;;;8.40;5.98;;;;;;;5.50;65.83;99231.07;263420;1099;114337;-82
2021/04/15 13:38:26;;;;;;;8.93;6.93;;;;;;;5.45;66.23;99236.54;263469;1100;115491;-82
2021/04/15 13:43:32;;;;;;;10.05;7.43;;;;;;;5.52;66.58;99231.89;263159;1099;115601;-82
2021/04/15 13:48:46;;;;;;;8.90;6.18;;;;;;;5.52;65.86;99231.89;263390;1104;114542;-82
2021/04/15 13:54:16;;;;;;;8.20;6.55;;;;;;;5.48;65.72;99230.29;263110;1099;114338;-81
2021/04/15 13:59:31;;;;;;;9.03;6.95;;;;;;;5.37;65.45;99239.47;263539;1101;114358;-81
2021/04/15 14:04:43;;;;;;;9.17;6.97;;;;;;;5.36;65.81;99237.73;257106;1099;114230;-88
2021/04/15 14:09:47;;;;;;;10.13;6.93;;;;;;;5.41;66.56;99235.80;262610;1104;114855;-90
2021/04/15 14:14:53;;;;;;;10.45;6.70;;;;;;;5.48;66.40;99230.29;263270;1099;114783;-82
2021/04/15 14:20:35;;;;;;;12.03;7.28;;;;;;;5.50;65.61;99231.92;263244;1104;114608;-82
2021/04/15 14:25:39;;;;;;;10.43;7.93;;;;;;;5.51;66.42;99233.67;262908;1099;115126;-82
2021/04/15 14:30:42;;;;;;;9.13;6.85;;;;;;;5.58;66.29;99236.94;260440;1104;114884;-81
2021/04/15 14:35:47;;;;;;;9.98;7.85;;;;;;;5.56;65.87;99236.13;261901;1099;114649;-81
2021/04/15 14:41:01;;;;;;;10.70;7.53;;;;;;;5.52;65.88;99224.82;263129;1104;114879;-82
2021/04/15 14:46:25;;;;;;;10.73;7.48;;;;;;;5.47;66.18;99239.98;262850;1098;114564;-81
2021/04/15 14:51:32;;;;;;;10.25;8.10;;;;;;;5.54;66.00;99235.34;260396;1101;114656;-81
2021/04/15 14:56:35;;;;;;;10.68;7.25;;;;;;;5.62;66.83;99230.61;263122;1099;115399;-82
2021/04/15 15:01:41;;;;;;;9.73;7.65;;;;;;;5.62;66.25;99233.25;263491;1104;115874;-81
2021/04/15 15:06:47;;;;;;;12.58;8.38;;;;;;;5.60;65.58;99229.80;263416;1099;114269;-81
2021/04/15 15:11:52;;;;;;;11.63;8.30;;;;;;;5.55;66.17;99229.98;261553;1104;115048;-82
2021/04/15 15:16:58;;;;;;;11.25;8.40;;;;;;;5.57;66.12;99227.27;260709;1099;114424;-80
2021/04/15 15:22:09;;;;;;;11.15;9.00;;;;;;;5.59;66.15;99231.58;263131;1104;114211;-83
2021/04/15 15:27:14;;;;;;;10.13;7.93;;;;;;;5.56;65.54;99226.42;261700;1099;114427;-75
2021/04/15 15:32:28;;;;;;;10.73;8.35;;;;;;;5.46;65.94;99236.46;260432;1104;114911;-76
2021/04/15 15:37:45;;;;;;;9.63;7.20;;;;;;;5.44;66.30;99235.68;263440;1099;114483;-74
2021/04/15 15:42:49;;;;;;;11.60;8.58;;;;;;;5.44;66.43;99225.13;263261;1104;114351;-74
2021/04/15 15:47:57;;;;;;;12.35;8.90;;;;;;;5.45;66.13;99218.06;263315;1099;114525;-74
2021/04/15 15:53:28;;;;;;;11.18;8.60;;;;;;;5.37;66.42;99226.28;263500;1104;114332;-81
2021/04/15 15:58:35;;;;;;;13.48;8.78;;;;;;;5.35;66.51;99230.73;263456;1100;115011;-83
2021/04/15 16:03:39;;;;;;;10.20;7.30;;;;;;;5.35;66.48;99225.46;262320;1104;115055;-83
2021/04/15 16:08:42;;;;;;;11.68;8.18;;;;;;;5.30;66.10;99227.43;263485;1098;114475;-83
2021/04/15 16:13:47;;;;;;;12.88;8.68;;;;;;;5.25;66.08;99224.09;262849;1104;114000;-81
2021/04/15 16:18:50;;;;;;;12.28;8.65;;;;;;;5.28;66.73;99229.25;262834;1100;114389;-84
2021/04/15 16:24:16;;;;;;;12.68;9.30;;;;;;;5.27;66.38;99227.55;261827;1104;114657;-83
2021/04/15 16:29:20;;;;;;;11.90;9.33;;;;;;;5.33;66.56;99226.43;263048;1099;114698;-84
2021/04/15 16:34:38;;;;;;;12.88;9.23;;;;;;;5.38;66.76;99233.27;263256;1104;114711;-81
2021/04/15 16:39:41;;;;;;;11.05;8.90;;;;;;;5.32;66.47;99224.72;262761;1099;114418;-83
2021/04/15 16:44:45;;;;;;;14.00;9.33;;;;;;;5.26;66.68;99231.08;263511;1100;114923;-84
2021/04/15 16:49:48;;;;;;;14.70;9.53;;;;;;;5.27;66.29;99226.69;262776;1099;114430;-79
2021/04/15 16:54:51;;;;;;;12.53;8.98;;;;;;;5.22;66.67;99225.05;262131;1104;114307;-84
2021/04/15 16:59:54;;;;;;;12.28;8.68;;;;;;;5.15;66.47;99217.44;263217;1099;114339;-80
2021/04/15 17:04:57;;;;;;;13.23;9.25;;;;;;;5.13;66.77;99230.70;263408;1104;114577;-72
2021/04/15 17:10:00;;;;;;;12.05;9.53;;;;;;;5.12;66.98;99228.09;263453;1099;114542;-75
2021/04/15 17:15:07;;;;;;;13.03;9.95;;;;;;;5.21;66.98;99233.90;260774;1104;115327;-77
2021/04/15 17:20:11;;;;;;;12.98;10.08;;;;;;;5.22;66.71;99234.75;262409;1097;115915;-75
2021/04/15 17:25:16;;;;;;;14.18;10.18;;;;;;;5.20;66.93;99240.10;263404;1104;115774;-75
2021/04/15 17:30:25;;;;;;;15.85;10.53;;;;;;;5.18;66.72;99248.98;263337;1099;115233;-73
2021/04/15 17:35:30;;;;;;;15.18;10.10;;;;;;;5.10;66.35;99243.14;263114;1103;115559;-75
2021/04/15 17:40:37;;;;;;;16.30;10.38;;;;;;;4.95;66.22;99253.30;263280;1100;115048;-75
2021/04/15 17:45:41;;;;;;;15.80;10.60;;;;;;;4.87;66.75;99249.23;262938;1104;115640;-77
2021/04/15 17:50:48;;;;;;;14.68;10.73;;;;;;;4.91;66.75;99254.33;261697;1099;115578;-72
2021/04/15 17:55:51;;;;;;;15.63;11.45;;;;;;;4.90;66.89;99260.53;263465;1101;115731;-73
2021/04/15 18:00:56;;;;;;;14.68;10.20;;;;;;;4.86;66.91;99253.65;263438;1099;114891;-73
2021/04/15 18:06:01;;;;;;;13.53;10.55;;;;;;;4.81;66.95;99262.63;263406;1104;114524;-74
2021/04/15 18:11:05;;;;;;;15.75;11.58;;;;;;;4.79;67.25;99267.08;263340;1099;114711;-74
2021/04/15 18:16:09;;;;;;;14.18;10.80;;;;;;;4.81;67.25;99279.30;263407;1104;114615;-73
2021/04/15 18:21:16;;;;;;;19.80;12.65;;;;;;;4.77;67.14;99275.05;263373;1100;114626;-74
2021/04/15 18:26:21;;;;;;;15.50;11.03;;;;;;;4.81;67.23;99275.80;262876;1105;115066;-74
2021/04/15 18:31:25;;;;;;;16.23;11.88;;;;;;;4.79;67.24;99275.88;263236;1099;115026;-74
2021/04/15 18:36:30;;;;;;;15.58;11.45;;;;;;;4.81;67.28;99276.66;263354;1104;115570;-73
2021/04/15 18:41:38;;;;;;;18.58;12.45;;;;;;;4.81;66.86;99281.08;263453;1100;114752;-74
2021/04/15 18:46:46;;;;;;;19.35;13.83;;;;;;;4.79;67.70;99269.72;263220;1104;115174;-73
2021/04/15 18:51:54;;;;;;;17.58;13.18;;;;;;;4.73;67.31;99269.03;263477;1099;115102;-74
2021/04/15 18:57:00;;;;;;;19.13;13.78;;;;;;;4.65;67.43;99264.92;263461;1104;114920;-74
2021/04/15 19:02:04;;;;;;;21.10;14.58;;;;;;;4.61;67.50;99264.16;263431;1099;114427;-73
2021/04/15 19:07:07;;;;;;;18.88;13.50;;;;;;;4.60;67.52;99261.59;263224;1104;114578;-75
2021/04/15 19:12:10;;;;;;;18.15;13.80;;;;;;;4.62;67.56;99259.75;263132;1099;114659;-73
2021/04/15 19:17:15;;;;;;;18.23;13.85;;;;;;;4.61;67.72;99261.53;263386;1104;115207;-72
2021/04/15 19:22:18;;;;;;;19.95;14.58;;;;;;;4.57;67.53;99256.42;263367;1099;114833;-71
2021/04/15 19:27:21;;;;;;;21.33;14.58;;;;;;;4.53;67.58;99254.81;263137;1104;115906;-70
2021/04/15 19:32:24;;;;;;;21.95;15.58;;;;;;;4.53;67.94;99260.09;263021;1100;114689;-73
2021/04/15 19:37:27;;;;;;;23.70;15.55;;;;;;;4.51;67.59;99260.12;263273;1104;114582;-74
2021/04/15 19:42:31;;;;;;;20.38;14.55;;;;;;;4.51;68.15;99266.25;263259;1098;115171;-73
2021/04/15 19:47:33;;;;;;;22.38;15.78;;;;;;;4.60;67.85;99261.59;263477;1100;114736;-73
2021/04/15 19:52:37;;;;;;;20.80;15.20;;;;;;;4.63;67.73;99258.86;263410;1099;115494;-71
2021/04/15 19:57:40;;;;;;;21.30;15.38;;;;;;;4.61;67.79;99252.77;263466;1104;115013;-73
2021/04/15 20:02:43;;;;;;;23.93;16.60;;;;;;;4.57;68.05;99251.16;263480;1099;114793;-73
2021/04/15 20:07:46;;;;;;;24.05;17.53;;;;;;;4.47;67.94;99250.61;263468;1104;114503;-74
2021/04/15 20:12:49;;;;;;;28.73;18.75;;;;;;;4.48;68.23;99244.41;263215;1099;114817;-74
2021/04/15 20:17:52;;;;;;;26.55;17.63;;;;;;;4.54;67.83;99241.58;262955;1104;114299;-74
2021/04/15 20:22:55;;;;;;;25.00;17.90;;;;;;;4.61;68.33;99243.08;263467;1099;115015;-74
2021/04/15 20:27:59;;;;;;;28.10;19.25;;;;;;;4.65;68.50;99239.45;263365;1104;115320;-74
2021/04/15 20:33:14;;;;;;;28.13;19.83;;;;;;;4.70;68.58;99245.41;263311;1099;114767;-75
2021/04/15 20:38:20;;;;;;;27.90;18.85;;;;;;;4.64;68.33;99242.98;263167;1104;114938;-74
2021/04/15 20:43:25;;;;;;;29.90;20.70;;;;;;;4.59;68.45;99237.02;263392;1099;203979;-74
2021/04/15 20:48:29;;;;;;;28.75;18.98;;;;;;;4.56;68.41;99234.48;263541;1103;114745;-73
2021/04/15 20:53:33;;;;;;;28.00;18.08;;;;;;;4.56;68.22;99238.91;263480;1099;114701;-73
2021/04/15 20:58:37;;;;;;;29.83;20.03;;;;;;;4.58;68.69;99226.52;263474;1104;114850;-72
2021/04/15 21:03:40;;;;;;;29.73;20.38;;;;;;;4.61;68.25;99235.17;263439;1099;114558;-73
2021/04/15 21:08:44;;;;;;;27.00;18.85;;;;;;;4.62;68.40;99226.38;263476;1104;114648;-73
2021/04/15 21:13:47;;;;;;;27.40;18.80;;;;;;;4.59;68.10;99228.26;263440;1100;114657;-73
2021/04/15 21:18:51;;;;;;;25.53;19.15;;;;;;;4.58;68.31;99226.52;263506;1104;114649;-73
2021/04/15 21:23:53;;;;;;;31.48;20.75;;;;;;;4.59;68.46;99217.72;263141;1099;115045;-73
2021/04/15 21:28:56;;;;;;;30.98;20.75;;;;;;;4.63;68.63;99219.33;263030;1104;114915;-74
2021/04/15 21:33:59;;;;;;;29.65;20.58;;;;;;;4.63;68.26;99225.45;263500;1099;115025;-72
2021/04/15 21:39:06;;;;;;;33.13;21.73;;;;;;;4.68;68.37;99217.38;263517;1104;114853;-73
2021/04/15 21:44:10;;;;;;;28.23;19.83;;;;;;;4.68;68.68;99212.95;263558;1099;114672;-72
2021/04/15 21:49:14;;;;;;;28.13;20.78;;;;;;;4.69;68.32;99221.75;263139;1104;114562;-73
2021/04/15 21:54:19;;;;;;;31.05;21.55;;;;;;;4.69;68.48;99216.48;263446;1099;114427;-73
2021/04/15 21:59:22;;;;;;;33.23;21.38;;;;;;;4.65;68.46;99222.75;263434;1102;114480;-74
2021/04/15 22:04:26;;;;;;;32.70;21.70;;;;;;;4.70;68.30;99226.95;263424;1100;115318;-71
2021/04/15 22:09:32;;;;;;;34.57;22.00;;;;;;;4.81;68.97;99229.20;262813;1100;115456;-72
2021/04/15 22:14:34;;;;;;;30.55;20.95;;;;;;;4.82;68.73;99220.38;263144;1099;115111;-73
2021/04/15 22:19:38;;;;;;;31.43;22.58;;;;;;;4.79;68.37;99224.89;263511;1104;114705;-73
2021/04/15 22:24:47;;;;;;;30.20;20.55;;;;;;;4.77;69.00;99224.11;263489;1100;114741;-73
2021/04/15 22:29:50;;;;;;;32.45;22.40;;;;;;;4.78;68.46;99225.81;263302;1104;114632;-72
2021/04/15 22:34:55;;;;;;;35.65;24.00;;;;;;;4.75;68.74;99224.14;263490;1099;114516;-74
2021/04/15 22:39:57;;;;;;;34.93;23.33;;;;;;;4.72;68.46;99219.86;263365;1101;114503;-81
2021/04/15 22:45:02;;;;;;;32.90;21.77;;;;;;;4.79;68.86;99224.89;263456;1098;114985;-81
2021/04/15 22:50:09;;;;;;;36.30;23.68;;;;;;;4.82;68.71;99227.42;263536;1104;115076;-82
2021/04/15 22:55:18;;;;;;;31.73;22.45;;;;;;;4.89;68.88;99221.91;263454;1100;114543;-80
2021/04/15 23:00:28;;;;;;;35.50;23.65;;;;;;;4.86;68.58;99216.73;261819;1104;114735;-82
2021/04/15 23:05:31;;;;;;;38.65;25.00;;;;;;;4.82;68.65;99209.83;263033;1100;115027;-81
2021/04/15 23:10:38;;;;;;;32.78;21.73;;;;;;;4.75;68.52;99203.05;263529;1101;114644;-73
2021/04/15 23:15:41;;;;;;;35.40;23.48;;;;;;;4.66;68.74;99203.41;263410;1099;115936;-73
2021/04/15 23:20:52;;;;;;;36.60;23.38;;;;;;;4.69;68.99;99208.57;263536;1103;114557;-82
2021/04/15 23:25:55;;;;;;;30.40;22.03;;;;;;;4.72;69.23;99188.23;263361;1099;114764;-82
2021/04/15 23:30:59;;;;;;;33.28;21.60;;;;;;;4.78;69.04;99181.86;263135;1104;114658;-82
2021/04/15 23:36:01;;;;;;;32.43;21.18;;;;;;;4.73;68.96;99175.91;263070;1099;114449;-82
2021/04/15 23:41:05;;;;;;;30.98;21.65;;;;;;;4.69;69.15;99182.21;263502;1103;114515;-81
2021/04/15 23:46:08;;;;;;;29.83;21.03;;;;;;;4.66;68.68;99184.95;263481;1100;114675;-81
2021/04/15 23:51:11;;;;;;;30.38;20.60;;;;;;;4.62;68.90;99175.41;261183;1104;114646;-71
2021/04/15 23:56:14;;;;;;;31.78;20.13;;;;;;;4.70;68.92;99173.38;262794;1099;114760;-72
